sensor_id;sensor_type;location;lat;lon;timestamp;P1;durP1;ratioP1;P2;durP2;ratioP2
11588;SDS011;5850;51.360;12.362;2023-02-07T00:01:51;28.33;;;20.67;;
11588;SDS011;5850;51.360;12.362;2023-02-07T00:04:20;30.50;;;20.77;;
11588;SDS011;5850;51.360;12.362;2023-02-07T00:06:49;29.33;;;19.00;;
11588;SDS011;5850;51.360;12.362;2023-02-07T00:09:18;31.63;;;19.13;;
11588;SDS011;5850;51.360;12.362;2023-02-07T00:11:46;27.30;;;19.73;;
11588;SDS011;5850;51.360;12.362;2023-02-07T00:14:15;28.20;;;20.00;;
11588;SDS011;5850;51.360;12.362;2023-02-07T00:16:43;29.73;;;19.70;;
11588;SDS011;5850;51.360;12.362;2023-02-07T00:19:12;29.07;;;19.90;;
11588;SDS011;5850;51.360;12.362;2023-02-07T00:21:41;29.77;;;19.93;;
11588;SDS011;5850;51.360;12.362;2023-02-07T00:24:09;28.40;;;20.17;;
11588;SDS011;5850;51.360;12.362;2023-02-07T00:26:38;30.70;;;20.93;;
11588;SDS011;5850;51.360;12.362;2023-02-07T00:29:06;29.60;;;20.95;;
11588;SDS011;5850;51.360;12.362;2023-02-07T00:31:35;28.40;;;20.23;;
11588;SDS011;5850;51.360;12.362;2023-02-07T00:34:06;29.97;;;20.20;;
11588;SDS011;5850;51.360;12.362;2023-02-07T00:36:35;27.97;;;19.07;;
11588;SDS011;5850;51.360;12.362;2023-02-07T00:39:09;29.37;;;20.03;;
11588;SDS011;5850;51.360;12.362;2023-02-07T00:41:42;29.38;;;20.30;;
11588;SDS011;5850;51.360;12.362;2023-02-07T00:44:11;29.17;;;20.13;;
11588;SDS011;5850;51.360;12.362;2023-02-07T00:46:40;26.93;;;18.50;;
11588;SDS011;5850;51.360;12.362;2023-02-07T00:49:10;29.83;;;19.35;;
11588;SDS011;5850;51.360;12.362;2023-02-07T00:51:38;29.33;;;19.65;;
11588;SDS011;5850;51.360;12.362;2023-02-07T00:54:07;26.50;;;17.83;;
11588;SDS011;5850;51.360;12.362;2023-02-07T00:56:36;25.53;;;17.70;;
11588;SDS011;5850;51.360;12.362;2023-02-07T00:59:07;28.40;;;18.27;;
11588;SDS011;5850;51.360;12.362;2023-02-07T01:01:35;24.77;;;17.70;;
11588;SDS011;5850;51.360;12.362;2023-02-07T01:04:04;28.57;;;18.13;;
11588;SDS011;5850;51.360;12.362;2023-02-07T01:06:32;25.40;;;18.23;;
11588;SDS011;5850;51.360;12.362;2023-02-07T01:09:03;25.53;;;17.43;;
11588;SDS011;5850;51.360;12.362;2023-02-07T01:11:32;26.80;;;18.52;;
11588;SDS011;5850;51.360;12.362;2023-02-07T01:14:01;26.05;;;17.98;;
11588;SDS011;5850;51.360;12.362;2023-02-07T01:16:31;27.73;;;19.08;;
11588;SDS011;5850;51.360;12.362;2023-02-07T01:19:03;25.40;;;17.73;;
11588;SDS011;5850;51.360;12.362;2023-02-07T01:21:34;25.65;;;17.75;;
11588;SDS011;5850;51.360;12.362;2023-02-07T01:24:03;24.37;;;17.77;;
11588;SDS011;5850;51.360;12.362;2023-02-07T01:26:33;27.37;;;18.63;;
11588;SDS011;5850;51.360;12.362;2023-02-07T01:29:03;26.70;;;18.50;;
11588;SDS011;5850;51.360;12.362;2023-02-07T02:08:30;26.42;;;18.33;;
11588;SDS011;5850;51.360;12.362;2023-02-07T02:13:46;25.23;;;18.05;;
11588;SDS011;5850;51.360;12.362;2023-02-07T02:16:37;27.55;;;19.17;;
11588;SDS011;5850;51.360;12.362;2023-02-07T02:28:32;26.58;;;18.50;;
11588;SDS011;5850;51.360;12.362;2023-02-07T02:34:32;28.48;;;19.42;;
11588;SDS011;5850;51.360;12.362;2023-02-07T02:37:46;26.73;;;18.40;;
11588;SDS011;5850;51.360;12.362;2023-02-07T02:43:55;24.70;;;17.48;;
11588;SDS011;5850;51.360;12.362;2023-02-07T02:45:57;28.25;;;18.83;;
11588;SDS011;5850;51.360;12.362;2023-02-07T02:48:35;26.02;;;17.83;;
11588;SDS011;5850;51.360;12.362;2023-02-07T02:51:04;25.83;;;18.38;;
11588;SDS011;5850;51.360;12.362;2023-02-07T02:53:32;24.77;;;18.42;;
11588;SDS011;5850;51.360;12.362;2023-02-07T02:56:12;24.60;;;18.10;;
11588;SDS011;5850;51.360;12.362;2023-02-07T03:10:59;27.45;;;18.75;;
11588;SDS011;5850;51.360;12.362;2023-02-07T03:16:48;25.15;;;17.88;;
11588;SDS011;5850;51.360;12.362;2023-02-07T03:19:48;26.00;;;17.88;;
11588;SDS011;5850;51.360;12.362;2023-02-07T03:22:38;26.80;;;17.58;;
11588;SDS011;5850;51.360;12.362;2023-02-07T03:25:08;28.73;;;18.45;;
11588;SDS011;5850;51.360;12.362;2023-02-07T03:27:38;25.42;;;17.90;;
11588;SDS011;5850;51.360;12.362;2023-02-07T03:30:10;24.52;;;17.35;;
11588;SDS011;5850;51.360;12.362;2023-02-07T03:32:43;26.27;;;19.17;;
11588;SDS011;5850;51.360;12.362;2023-02-07T03:35:20;26.05;;;19.13;;
11588;SDS011;5850;51.360;12.362;2023-02-07T03:37:55;28.73;;;19.83;;
11588;SDS011;5850;51.360;12.362;2023-02-07T03:40:27;28.13;;;19.05;;
11588;SDS011;5850;51.360;12.362;2023-02-07T03:43:03;28.98;;;19.20;;
11588;SDS011;5850;51.360;12.362;2023-02-07T03:45:37;27.63;;;19.33;;
11588;SDS011;5850;51.360;12.362;2023-02-07T03:48:05;28.40;;;19.13;;
11588;SDS011;5850;51.360;12.362;2023-02-07T03:50:34;29.15;;;19.70;;
11588;SDS011;5850;51.360;12.362;2023-02-07T03:53:03;29.63;;;19.33;;
11588;SDS011;5850;51.360;12.362;2023-02-07T03:55:31;25.65;;;18.55;;
11588;SDS011;5850;51.360;12.362;2023-02-07T03:58:00;29.02;;;19.05;;
11588;SDS011;5850;51.360;12.362;2023-02-07T04:00:29;25.52;;;18.58;;
11588;SDS011;5850;51.360;12.362;2023-02-07T04:02:57;30.63;;;20.80;;
11588;SDS011;5850;51.360;12.362;2023-02-07T04:05:26;28.42;;;20.75;;
11588;SDS011;5850;51.360;12.362;2023-02-07T04:07:54;25.58;;;18.17;;
11588;SDS011;5850;51.360;12.362;2023-02-07T04:10:23;29.40;;;19.88;;
11588;SDS011;5850;51.360;12.362;2023-02-07T04:12:51;27.33;;;18.92;;
11588;SDS011;5850;51.360;12.362;2023-02-07T04:15:20;27.13;;;19.05;;
11588;SDS011;5850;51.360;12.362;2023-02-07T04:17:48;25.50;;;18.23;;
11588;SDS011;5850;51.360;12.362;2023-02-07T04:20:17;30.25;;;18.92;;
11588;SDS011;5850;51.360;12.362;2023-02-07T04:22:45;25.83;;;17.70;;
11588;SDS011;5850;51.360;12.362;2023-02-07T04:25:14;29.17;;;19.48;;
11588;SDS011;5850;51.360;12.362;2023-02-07T04:27:42;32.83;;;19.83;;
11588;SDS011;5850;51.360;12.362;2023-02-07T04:30:11;29.05;;;19.13;;
11588;SDS011;5850;51.360;12.362;2023-02-07T04:32:39;27.98;;;19.50;;
11588;SDS011;5850;51.360;12.362;2023-02-07T04:35:08;28.90;;;18.55;;
11588;SDS011;5850;51.360;12.362;2023-02-07T04:37:36;29.95;;;19.55;;
11588;SDS011;5850;51.360;12.362;2023-02-07T04:40:05;27.63;;;19.52;;
11588;SDS011;5850;51.360;12.362;2023-02-07T04:42:34;28.05;;;18.45;;
11588;SDS011;5850;51.360;12.362;2023-02-07T04:45:03;27.67;;;19.05;;
11588;SDS011;5850;51.360;12.362;2023-02-07T04:47:31;31.48;;;20.73;;
11588;SDS011;5850;51.360;12.362;2023-02-07T04:50:00;31.42;;;20.27;;
11588;SDS011;5850;51.360;12.362;2023-02-07T04:52:28;31.73;;;21.48;;
11588;SDS011;5850;51.360;12.362;2023-02-07T04:54:57;33.70;;;23.08;;
11588;SDS011;5850;51.360;12.362;2023-02-07T04:57:25;32.50;;;22.25;;
11588;SDS011;5850;51.360;12.362;2023-02-07T04:59:54;32.67;;;22.35;;
11588;SDS011;5850;51.360;12.362;2023-02-07T05:02:22;33.00;;;21.80;;
11588;SDS011;5850;51.360;12.362;2023-02-07T05:04:51;36.28;;;23.10;;
11588;SDS011;5850;51.360;12.362;2023-02-07T05:07:19;34.05;;;22.80;;
11588;SDS011;5850;51.360;12.362;2023-02-07T05:09:48;32.70;;;21.80;;
11588;SDS011;5850;51.360;12.362;2023-02-07T05:12:16;37.03;;;23.20;;
11588;SDS011;5850;51.360;12.362;2023-02-07T05:14:45;34.85;;;21.98;;
11588;SDS011;5850;51.360;12.362;2023-02-07T05:17:13;35.63;;;23.52;;
11588;SDS011;5850;51.360;12.362;2023-02-07T05:19:41;40.33;;;23.75;;
11588;SDS011;5850;51.360;12.362;2023-02-07T05:22:10;38.75;;;24.13;;
11588;SDS011;5850;51.360;12.362;2023-02-07T05:24:38;35.53;;;23.75;;
11588;SDS011;5850;51.360;12.362;2023-02-07T05:27:07;36.50;;;23.67;;
11588;SDS011;5850;51.360;12.362;2023-02-07T05:29:35;37.33;;;23.38;;
11588;SDS011;5850;51.360;12.362;2023-02-07T05:32:04;41.15;;;24.95;;
11588;SDS011;5850;51.360;12.362;2023-02-07T05:34:50;40.65;;;25.20;;
11588;SDS011;5850;51.360;12.362;2023-02-07T05:37:18;39.97;;;26.55;;
11588;SDS011;5850;51.360;12.362;2023-02-07T05:39:46;40.42;;;26.23;;
11588;SDS011;5850;51.360;12.362;2023-02-07T05:42:15;40.15;;;24.08;;
11588;SDS011;5850;51.360;12.362;2023-02-07T05:44:44;39.65;;;24.95;;
11588;SDS011;5850;51.360;12.362;2023-02-07T05:47:12;38.33;;;24.98;;
11588;SDS011;5850;51.360;12.362;2023-02-07T05:49:41;41.08;;;25.63;;
11588;SDS011;5850;51.360;12.362;2023-02-07T05:52:09;43.60;;;25.88;;
11588;SDS011;5850;51.360;12.362;2023-02-07T05:54:38;35.15;;;23.23;;
11588;SDS011;5850;51.360;12.362;2023-02-07T05:57:06;35.60;;;23.83;;
11588;SDS011;5850;51.360;12.362;2023-02-07T05:59:35;40.78;;;24.75;;
11588;SDS011;5850;51.360;12.362;2023-02-07T06:02:03;38.97;;;24.20;;
11588;SDS011;5850;51.360;12.362;2023-02-07T06:04:32;44.08;;;25.15;;
11588;SDS011;5850;51.360;12.362;2023-02-07T06:07:00;40.35;;;25.27;;
11588;SDS011;5850;51.360;12.362;2023-02-07T06:09:28;43.50;;;26.02;;
11588;SDS011;5850;51.360;12.362;2023-02-07T06:11:57;39.60;;;24.60;;
11588;SDS011;5850;51.360;12.362;2023-02-07T06:14:27;44.75;;;24.83;;
11588;SDS011;5850;51.360;12.362;2023-02-07T06:16:55;41.30;;;25.80;;
11588;SDS011;5850;51.360;12.362;2023-02-07T06:19:24;44.78;;;26.88;;
11588;SDS011;5850;51.360;12.362;2023-02-07T06:21:52;40.58;;;25.48;;
11588;SDS011;5850;51.360;12.362;2023-02-07T06:24:20;35.75;;;23.85;;
11588;SDS011;5850;51.360;12.362;2023-02-07T06:26:49;40.22;;;24.80;;
11588;SDS011;5850;51.360;12.362;2023-02-07T06:29:17;40.40;;;23.90;;
11588;SDS011;5850;51.360;12.362;2023-02-07T06:31:46;37.83;;;23.17;;
11588;SDS011;5850;51.360;12.362;2023-02-07T06:34:14;44.97;;;25.73;;
11588;SDS011;5850;51.360;12.362;2023-02-07T06:36:43;40.50;;;24.85;;
11588;SDS011;5850;51.360;12.362;2023-02-07T06:39:11;37.85;;;22.33;;
11588;SDS011;5850;51.360;12.362;2023-02-07T06:41:40;40.47;;;24.90;;
11588;SDS011;5850;51.360;12.362;2023-02-07T06:44:08;38.42;;;23.63;;
11588;SDS011;5850;51.360;12.362;2023-02-07T06:46:37;40.83;;;24.30;;
11588;SDS011;5850;51.360;12.362;2023-02-07T06:49:05;43.45;;;25.52;;
11588;SDS011;5850;51.360;12.362;2023-02-07T06:51:34;40.30;;;25.38;;
11588;SDS011;5850;51.360;12.362;2023-02-07T06:54:02;45.20;;;27.27;;
11588;SDS011;5850;51.360;12.362;2023-02-07T06:56:35;42.78;;;25.73;;
11588;SDS011;5850;51.360;12.362;2023-02-07T06:59:04;44.25;;;25.23;;
11588;SDS011;5850;51.360;12.362;2023-02-07T07:01:33;44.63;;;26.10;;
11588;SDS011;5850;51.360;12.362;2023-02-07T07:04:01;44.85;;;27.95;;
11588;SDS011;5850;51.360;12.362;2023-02-07T07:06:30;41.63;;;25.95;;
11588;SDS011;5850;51.360;12.362;2023-02-07T07:08:58;43.20;;;26.92;;
11588;SDS011;5850;51.360;12.362;2023-02-07T07:11:27;45.63;;;27.15;;
11588;SDS011;5850;51.360;12.362;2023-02-07T07:13:55;42.47;;;26.60;;
11588;SDS011;5850;51.360;12.362;2023-02-07T07:16:25;43.40;;;26.75;;
11588;SDS011;5850;51.360;12.362;2023-02-07T07:18:53;42.45;;;25.70;;
11588;SDS011;5850;51.360;12.362;2023-02-07T07:21:22;51.38;;;28.67;;
11588;SDS011;5850;51.360;12.362;2023-02-07T07:23:53;48.23;;;26.77;;
11588;SDS011;5850;51.360;12.362;2023-02-07T07:26:21;49.25;;;28.63;;
11588;SDS011;5850;51.360;12.362;2023-02-07T07:28:50;46.70;;;28.05;;
11588;SDS011;5850;51.360;12.362;2023-02-07T07:31:23;43.72;;;27.48;;
11588;SDS011;5850;51.360;12.362;2023-02-07T07:33:52;46.87;;;27.30;;
11588;SDS011;5850;51.360;12.362;2023-02-07T07:36:21;48.40;;;29.90;;
11588;SDS011;5850;51.360;12.362;2023-02-07T07:38:50;45.83;;;28.33;;
11588;SDS011;5850;51.360;12.362;2023-02-07T07:41:18;46.63;;;27.50;;
11588;SDS011;5850;51.360;12.362;2023-02-07T07:43:46;51.97;;;30.33;;
11588;SDS011;5850;51.360;12.362;2023-02-07T07:46:15;59.17;;;31.13;;
11588;SDS011;5850;51.360;12.362;2023-02-07T07:48:43;49.28;;;28.80;;
11588;SDS011;5850;51.360;12.362;2023-02-07T07:51:12;48.15;;;28.33;;
11588;SDS011;5850;51.360;12.362;2023-02-07T07:53:40;49.57;;;27.93;;
11588;SDS011;5850;51.360;12.362;2023-02-07T07:56:09;52.25;;;27.45;;
11588;SDS011;5850;51.360;12.362;2023-02-07T07:58:37;48.00;;;26.70;;
11588;SDS011;5850;51.360;12.362;2023-02-07T08:01:06;46.40;;;26.67;;
11588;SDS011;5850;51.360;12.362;2023-02-07T08:03:34;45.13;;;27.30;;
11588;SDS011;5850;51.360;12.362;2023-02-07T08:06:03;47.93;;;26.93;;
11588;SDS011;5850;51.360;12.362;2023-02-07T08:08:32;47.00;;;26.27;;
11588;SDS011;5850;51.360;12.362;2023-02-07T08:11:02;43.73;;;25.47;;
11588;SDS011;5850;51.360;12.362;2023-02-07T08:13:33;58.17;;;31.03;;
11588;SDS011;5850;51.360;12.362;2023-02-07T08:16:03;49.83;;;28.37;;
11588;SDS011;5850;51.360;12.362;2023-02-07T08:18:33;49.67;;;27.67;;
11588;SDS011;5850;51.360;12.362;2023-02-07T08:21:02;50.00;;;27.67;;
11588;SDS011;5850;51.360;12.362;2023-02-07T08:23:30;47.65;;;27.40;;
11588;SDS011;5850;51.360;12.362;2023-02-07T08:25:59;55.42;;;29.98;;
11588;SDS011;5850;51.360;12.362;2023-02-07T08:28:29;52.63;;;28.73;;
11588;SDS011;5850;51.360;12.362;2023-02-07T08:30:58;55.40;;;28.60;;
11588;SDS011;5850;51.360;12.362;2023-02-07T08:33:31;52.07;;;27.20;;
11588;SDS011;5850;51.360;12.362;2023-02-07T08:35:59;44.47;;;26.77;;
11588;SDS011;5850;51.360;12.362;2023-02-07T08:38:30;50.77;;;27.47;;
11588;SDS011;5850;51.360;12.362;2023-02-07T08:40:59;49.67;;;26.80;;
11588;SDS011;5850;51.360;12.362;2023-02-07T08:43:27;48.63;;;27.23;;
11588;SDS011;5850;51.360;12.362;2023-02-07T08:45:56;50.17;;;27.43;;
11588;SDS011;5850;51.360;12.362;2023-02-07T08:48:25;46.80;;;27.73;;
11588;SDS011;5850;51.360;12.362;2023-02-07T08:50:54;46.87;;;26.97;;
11588;SDS011;5850;51.360;12.362;2023-02-07T08:53:26;49.10;;;27.40;;
11588;SDS011;5850;51.360;12.362;2023-02-07T08:55:54;47.03;;;26.53;;
11588;SDS011;5850;51.360;12.362;2023-02-07T08:58:23;48.03;;;29.03;;
11588;SDS011;5850;51.360;12.362;2023-02-07T09:00:51;54.50;;;29.47;;
11588;SDS011;5850;51.360;12.362;2023-02-07T09:03:20;61.57;;;31.73;;
11588;SDS011;5850;51.360;12.362;2023-02-07T09:05:48;52.00;;;31.50;;
11588;SDS011;5850;51.360;12.362;2023-02-07T09:08:17;48.20;;;27.70;;
11588;SDS011;5850;51.360;12.362;2023-02-07T09:10:46;51.77;;;30.23;;
11588;SDS011;5850;51.360;12.362;2023-02-07T09:13:14;50.33;;;28.90;;
11588;SDS011;5850;51.360;12.362;2023-02-07T09:15:43;49.40;;;29.47;;
11588;SDS011;5850;51.360;12.362;2023-02-07T09:18:11;55.60;;;30.40;;
11588;SDS011;5850;51.360;12.362;2023-02-07T09:20:39;57.90;;;29.87;;
11588;SDS011;5850;51.360;12.362;2023-02-07T09:23:09;57.87;;;30.80;;
11588;SDS011;5850;51.360;12.362;2023-02-07T09:25:45;54.23;;;29.57;;
11588;SDS011;5850;51.360;12.362;2023-02-07T09:28:16;53.83;;;29.40;;
11588;SDS011;5850;51.360;12.362;2023-02-07T09:30:45;48.97;;;28.07;;
11588;SDS011;5850;51.360;12.362;2023-02-07T09:33:15;58.50;;;31.00;;
11588;SDS011;5850;51.360;12.362;2023-02-07T09:35:44;52.90;;;29.07;;
11588;SDS011;5850;51.360;12.362;2023-02-07T09:38:17;54.50;;;30.07;;
11588;SDS011;5850;51.360;12.362;2023-02-07T09:40:48;62.03;;;32.90;;
11588;SDS011;5850;51.360;12.362;2023-02-07T09:43:28;49.93;;;29.77;;
11588;SDS011;5850;51.360;12.362;2023-02-07T09:46:16;52.57;;;27.53;;
11588;SDS011;5850;51.360;12.362;2023-02-07T09:51:38;51.97;;;31.63;;
11588;SDS011;5850;51.360;12.362;2023-02-07T09:54:27;55.77;;;31.13;;
11588;SDS011;5850;51.360;12.362;2023-02-07T09:57:13;52.67;;;30.10;;
11588;SDS011;5850;51.360;12.362;2023-02-07T10:02:33;59.43;;;32.17;;
11588;SDS011;5850;51.360;12.362;2023-02-07T10:06:19;51.80;;;30.40;;
11588;SDS011;5850;51.360;12.362;2023-02-07T10:08:42;54.73;;;30.00;;
11588;SDS011;5850;51.360;12.362;2023-02-07T10:23:00;51.90;;;29.50;;
11588;SDS011;5850;51.360;12.362;2023-02-07T10:30:48;54.23;;;28.83;;
11588;SDS011;5850;51.360;12.362;2023-02-07T10:33:21;52.37;;;28.57;;
11588;SDS011;5850;51.360;12.362;2023-02-07T10:35:55;49.40;;;28.13;;
11588;SDS011;5850;51.360;12.362;2023-02-07T10:38:26;52.13;;;28.73;;
11588;SDS011;5850;51.360;12.362;2023-02-07T10:41:09;54.43;;;29.83;;
11588;SDS011;5850;51.360;12.362;2023-02-07T10:43:57;55.83;;;30.03;;
11588;SDS011;5850;51.360;12.362;2023-02-07T10:46:26;58.93;;;30.30;;
11588;SDS011;5850;51.360;12.362;2023-02-07T10:48:55;56.63;;;30.83;;
11588;SDS011;5850;51.360;12.362;2023-02-07T10:51:25;51.00;;;28.47;;
11588;SDS011;5850;51.360;12.362;2023-02-07T10:54:05;54.23;;;28.67;;
11588;SDS011;5850;51.360;12.362;2023-02-07T10:56:40;52.00;;;29.80;;
11588;SDS011;5850;51.360;12.362;2023-02-07T11:05:00;49.40;;;28.90;;
11588;SDS011;5850;51.360;12.362;2023-02-07T11:07:32;53.77;;;29.60;;
11588;SDS011;5850;51.360;12.362;2023-02-07T11:10:14;52.27;;;28.73;;
11588;SDS011;5850;51.360;12.362;2023-02-07T11:12:54;56.07;;;30.23;;
11588;SDS011;5850;51.360;12.362;2023-02-07T11:15:30;55.30;;;29.23;;
11588;SDS011;5850;51.360;12.362;2023-02-07T11:18:27;51.07;;;28.67;;
11588;SDS011;5850;51.360;12.362;2023-02-07T11:23:56;49.97;;;27.93;;
11588;SDS011;5850;51.360;12.362;2023-02-07T11:26:37;50.97;;;28.33;;
11588;SDS011;5850;51.360;12.362;2023-02-07T11:29:29;55.63;;;29.10;;
11588;SDS011;5850;51.360;12.362;2023-02-07T11:32:01;51.23;;;29.07;;
11588;SDS011;5850;51.360;12.362;2023-02-07T11:39:44;51.77;;;28.60;;
11588;SDS011;5850;51.360;12.362;2023-02-07T11:42:16;48.67;;;29.47;;
11588;SDS011;5850;51.360;12.362;2023-02-07T11:44:48;56.13;;;29.77;;
11588;SDS011;5850;51.360;12.362;2023-02-07T11:47:24;51.27;;;27.90;;
11588;SDS011;5850;51.360;12.362;2023-02-07T11:50:03;47.70;;;27.63;;
11588;SDS011;5850;51.360;12.362;2023-02-07T11:52:33;52.23;;;28.77;;
11588;SDS011;5850;51.360;12.362;2023-02-07T11:55:06;48.57;;;29.47;;
11588;SDS011;5850;51.360;12.362;2023-02-07T11:57:41;48.87;;;28.47;;
11588;SDS011;5850;51.360;12.362;2023-02-07T12:00:17;50.47;;;27.57;;
11588;SDS011;5850;51.360;12.362;2023-02-07T12:03:06;47.20;;;26.87;;
11588;SDS011;5850;51.360;12.362;2023-02-07T12:05:48;48.53;;;28.57;;
11588;SDS011;5850;51.360;12.362;2023-02-07T12:08:28;49.60;;;30.03;;
11588;SDS011;5850;51.360;12.362;2023-02-07T12:11:05;50.73;;;28.93;;
11588;SDS011;5850;51.360;12.362;2023-02-07T12:13:41;52.83;;;30.57;;
11588;SDS011;5850;51.360;12.362;2023-02-07T12:16:33;56.47;;;30.50;;
11588;SDS011;5850;51.360;12.362;2023-02-07T12:19:12;49.37;;;28.83;;
11588;SDS011;5850;51.360;12.362;2023-02-07T12:22:24;49.73;;;29.13;;
11588;SDS011;5850;51.360;12.362;2023-02-07T12:24:51;51.70;;;29.80;;
11588;SDS011;5850;51.360;12.362;2023-02-07T12:27:29;61.83;;;31.73;;
11588;SDS011;5850;51.360;12.362;2023-02-07T12:33:18;58.97;;;30.80;;
11588;SDS011;5850;51.360;12.362;2023-02-07T12:39:33;63.40;;;32.03;;
11588;SDS011;5850;51.360;12.362;2023-02-07T12:44:56;55.47;;;30.30;;
11588;SDS011;5850;51.360;12.362;2023-02-07T12:47:35;53.77;;;31.87;;
11588;SDS011;5850;51.360;12.362;2023-02-07T13:06:40;62.17;;;33.17;;
11588;SDS011;5850;51.360;12.362;2023-02-07T13:09:39;69.90;;;37.63;;
11588;SDS011;5850;51.360;12.362;2023-02-07T13:18:02;54.20;;;30.53;;
11588;SDS011;5850;51.360;12.362;2023-02-07T13:20:45;48.07;;;28.87;;
11588;SDS011;5850;51.360;12.362;2023-02-07T13:23:32;54.57;;;31.67;;
11588;SDS011;5850;51.360;12.362;2023-02-07T13:26:04;53.10;;;31.50;;
11588;SDS011;5850;51.360;12.362;2023-02-07T13:28:48;51.90;;;31.07;;
11588;SDS011;5850;51.360;12.362;2023-02-07T13:31:36;51.80;;;31.07;;
11588;SDS011;5850;51.360;12.362;2023-02-07T13:34:34;56.53;;;31.77;;
11588;SDS011;5850;51.360;12.362;2023-02-07T13:37:11;52.90;;;31.87;;
11588;SDS011;5850;51.360;12.362;2023-02-07T13:39:47;56.60;;;32.03;;
11588;SDS011;5850;51.360;12.362;2023-02-07T13:42:37;49.83;;;30.90;;
11588;SDS011;5850;51.360;12.362;2023-02-07T13:45:19;54.43;;;29.70;;
11588;SDS011;5850;51.360;12.362;2023-02-07T13:48:05;47.47;;;29.50;;
11588;SDS011;5850;51.360;12.362;2023-02-07T13:56:55;56.77;;;33.20;;
11588;SDS011;5850;51.360;12.362;2023-02-07T14:00:05;54.93;;;31.33;;
11588;SDS011;5850;51.360;12.362;2023-02-07T14:02:51;52.50;;;29.97;;
11588;SDS011;5850;51.360;12.362;2023-02-07T14:07:57;57.73;;;32.93;;
11588;SDS011;5850;51.360;12.362;2023-02-07T14:10:41;58.90;;;32.50;;
11588;SDS011;5850;51.360;12.362;2023-02-07T14:31:57;59.00;;;34.50;;
11588;SDS011;5850;51.360;12.362;2023-02-07T14:37:54;56.73;;;34.37;;
11588;SDS011;5850;51.360;12.362;2023-02-07T14:40:47;52.97;;;30.43;;
11588;SDS011;5850;51.360;12.362;2023-02-07T14:46:35;58.50;;;34.97;;
11588;SDS011;5850;51.360;12.362;2023-02-07T14:49:15;65.33;;;34.50;;
11588;SDS011;5850;51.360;12.362;2023-02-07T14:51:59;54.60;;;32.00;;
11588;SDS011;5850;51.360;12.362;2023-02-07T14:59:56;60.73;;;32.90;;
11588;SDS011;5850;51.360;12.362;2023-02-07T15:02:34;57.80;;;32.63;;
11588;SDS011;5850;51.360;12.362;2023-02-07T15:05:26;60.03;;;32.00;;
11588;SDS011;5850;51.360;12.362;2023-02-07T15:08:08;53.00;;;32.67;;
11588;SDS011;5850;51.360;12.362;2023-02-07T15:13:36;57.87;;;32.40;;
11588;SDS011;5850;51.360;12.362;2023-02-07T15:16:16;56.13;;;31.03;;
11588;SDS011;5850;51.360;12.362;2023-02-07T15:21:40;61.03;;;33.43;;
11588;SDS011;5850;51.360;12.362;2023-02-07T15:26:42;58.87;;;31.93;;
11588;SDS011;5850;51.360;12.362;2023-02-07T15:29:18;56.63;;;33.27;;
11588;SDS011;5850;51.360;12.362;2023-02-07T15:31:56;57.83;;;33.17;;
11588;SDS011;5850;51.360;12.362;2023-02-07T15:34:27;63.40;;;33.87;;
11588;SDS011;5850;51.360;12.362;2023-02-07T15:37:20;65.77;;;34.00;;
11588;SDS011;5850;51.360;12.362;2023-02-07T15:39:52;58.53;;;34.50;;
11588;SDS011;5850;51.360;12.362;2023-02-07T15:42:22;62.43;;;33.23;;
11588;SDS011;5850;51.360;12.362;2023-02-07T15:44:54;64.50;;;34.07;;
11588;SDS011;5850;51.360;12.362;2023-02-07T15:50:18;58.53;;;32.90;;
11588;SDS011;5850;51.360;12.362;2023-02-07T15:52:50;62.33;;;35.67;;
11588;SDS011;5850;51.360;12.362;2023-02-07T16:01:00;84.43;;;43.83;;
11588;SDS011;5850;51.360;12.362;2023-02-07T16:03:35;102.50;;;52.50;;
11588;SDS011;5850;51.360;12.362;2023-02-07T16:08:56;64.77;;;38.43;;
11588;SDS011;5850;51.360;12.362;2023-02-07T16:16:36;64.80;;;35.87;;
11588;SDS011;5850;51.360;12.362;2023-02-07T16:19:31;65.23;;;36.57;;
11588;SDS011;5850;51.360;12.362;2023-02-07T16:22:12;62.50;;;34.43;;
11588;SDS011;5850;51.360;12.362;2023-02-07T16:24:46;57.73;;;33.90;;
11588;SDS011;5850;51.360;12.362;2023-02-07T16:27:17;62.33;;;36.23;;
11588;SDS011;5850;51.360;12.362;2023-02-07T16:29:49;65.97;;;36.63;;
11588;SDS011;5850;51.360;12.362;2023-02-07T16:32:18;65.13;;;34.87;;
11588;SDS011;5850;51.360;12.362;2023-02-07T16:34:47;60.83;;;34.80;;
11588;SDS011;5850;51.360;12.362;2023-02-07T16:37:25;53.17;;;32.47;;
11588;SDS011;5850;51.360;12.362;2023-02-07T16:39:54;58.40;;;35.07;;
11588;SDS011;5850;51.360;12.362;2023-02-07T16:42:23;63.87;;;36.77;;
11588;SDS011;5850;51.360;12.362;2023-02-07T16:44:51;62.23;;;35.63;;
11588;SDS011;5850;51.360;12.362;2023-02-07T16:47:20;69.63;;;38.97;;
11588;SDS011;5850;51.360;12.362;2023-02-07T16:49:48;67.30;;;39.30;;
11588;SDS011;5850;51.360;12.362;2023-02-07T16:52:17;65.70;;;37.97;;
11588;SDS011;5850;51.360;12.362;2023-02-07T16:54:46;64.20;;;36.37;;
11588;SDS011;5850;51.360;12.362;2023-02-07T16:57:14;67.63;;;38.20;;
11588;SDS011;5850;51.360;12.362;2023-02-07T16:59:43;65.87;;;37.00;;
11588;SDS011;5850;51.360;12.362;2023-02-07T17:02:12;61.40;;;36.83;;
11588;SDS011;5850;51.360;12.362;2023-02-07T17:04:42;62.83;;;37.57;;
11588;SDS011;5850;51.360;12.362;2023-02-07T17:07:10;70.57;;;37.73;;
11588;SDS011;5850;51.360;12.362;2023-02-07T17:09:39;70.70;;;39.20;;
11588;SDS011;5850;51.360;12.362;2023-02-07T17:12:11;67.90;;;37.67;;
11588;SDS011;5850;51.360;12.362;2023-02-07T17:14:40;67.53;;;36.10;;
11588;SDS011;5850;51.360;12.362;2023-02-07T17:17:09;68.70;;;36.67;;
11588;SDS011;5850;51.360;12.362;2023-02-07T17:19:39;71.37;;;40.53;;
11588;SDS011;5850;51.360;12.362;2023-02-07T17:22:08;71.27;;;38.90;;
11588;SDS011;5850;51.360;12.362;2023-02-07T17:24:37;68.20;;;37.67;;
11588;SDS011;5850;51.360;12.362;2023-02-07T17:27:05;67.77;;;37.90;;
11588;SDS011;5850;51.360;12.362;2023-02-07T17:29:34;61.63;;;35.30;;
11588;SDS011;5850;51.360;12.362;2023-02-07T17:32:03;59.30;;;35.83;;
11588;SDS011;5850;51.360;12.362;2023-02-07T17:34:31;66.20;;;37.10;;
11588;SDS011;5850;51.360;12.362;2023-02-07T17:36:59;63.90;;;37.00;;
11588;SDS011;5850;51.360;12.362;2023-02-07T17:39:28;67.70;;;38.17;;
11588;SDS011;5850;51.360;12.362;2023-02-07T17:41:57;68.43;;;35.93;;
11588;SDS011;5850;51.360;12.362;2023-02-07T17:44:25;67.93;;;38.10;;
11588;SDS011;5850;51.360;12.362;2023-02-07T17:46:55;65.23;;;35.40;;
11588;SDS011;5850;51.360;12.362;2023-02-07T17:49:23;67.90;;;36.43;;
11588;SDS011;5850;51.360;12.362;2023-02-07T17:51:52;66.57;;;35.20;;
11588;SDS011;5850;51.360;12.362;2023-02-07T17:54:20;63.83;;;35.10;;
11588;SDS011;5850;51.360;12.362;2023-02-07T17:56:48;63.77;;;33.77;;
11588;SDS011;5850;51.360;12.362;2023-02-07T17:59:21;68.60;;;37.53;;
11588;SDS011;5850;51.360;12.362;2023-02-07T18:01:51;63.43;;;36.07;;
11588;SDS011;5850;51.360;12.362;2023-02-07T18:04:20;63.97;;;36.40;;
11588;SDS011;5850;51.360;12.362;2023-02-07T18:06:49;64.83;;;34.60;;
11588;SDS011;5850;51.360;12.362;2023-02-07T18:09:17;67.27;;;35.37;;
11588;SDS011;5850;51.360;12.362;2023-02-07T18:11:46;65.00;;;34.83;;
11588;SDS011;5850;51.360;12.362;2023-02-07T18:14:15;62.00;;;37.03;;
11588;SDS011;5850;51.360;12.362;2023-02-07T18:16:44;59.03;;;34.80;;